sensor_id;sensor_type;location;lat;lon;timestamp;P1;durP1;ratioP1;P2;durP2;ratioP2
36629;SDS011;36256;42.154;23.002;2023-01-16T00:01:43;20.77;;;11.95;;
36629;SDS011;36256;42.154;23.002;2023-01-16T00:04:10;20.17;;;11.70;;
36629;SDS011;36256;42.154;23.002;2023-01-16T00:06:36;21.65;;;11.77;;
36629;SDS011;36256;42.154;23.002;2023-01-16T00:09:03;21.60;;;11.65;;
36629;SDS011;36256;42.154;23.002;2023-01-16T00:11:30;21.25;;;11.68;;
36629;SDS011;36256;42.154;23.002;2023-01-16T00:13:57;21.33;;;11.93;;
36629;SDS011;36256;42.154;23.002;2023-01-16T00:16:25;19.42;;;11.93;;
36629;SDS011;36256;42.154;23.002;2023-01-16T00:18:53;21.35;;;11.38;;
36629;SDS011;36256;42.154;23.002;2023-01-16T00:21:21;23.20;;;12.52;;
36629;SDS011;36256;42.154;23.002;2023-01-16T00:23:52;24.02;;;12.52;;
36629;SDS011;36256;42.154;23.002;2023-01-16T00:26:20;20.65;;;12.00;;
36629;SDS011;36256;42.154;23.002;2023-01-16T00:28:47;21.50;;;11.82;;
36629;SDS011;36256;42.154;23.002;2023-01-16T00:31:13;21.00;;;11.82;;
36629;SDS011;36256;42.154;23.002;2023-01-16T00:33:40;19.27;;;11.98;;
36629;SDS011;36256;42.154;23.002;2023-01-16T00:36:12;19.50;;;11.10;;
36629;SDS011;36256;42.154;23.002;2023-01-16T00:38:38;20.30;;;11.23;;
36629;SDS011;36256;42.154;23.002;2023-01-16T00:41:05;14.80;;;8.00;;
36629;SDS011;36256;42.154;23.002;2023-01-16T00:43:32;25.67;;;11.35;;
36629;SDS011;36256;42.154;23.002;2023-01-16T00:45:59;22.90;;;11.73;;
36629;SDS011;36256;42.154;23.002;2023-01-16T00:48:25;23.77;;;12.50;;
36629;SDS011;36256;42.154;23.002;2023-01-16T00:50:52;20.45;;;12.02;;
36629;SDS011;36256;42.154;23.002;2023-01-16T00:53:19;22.13;;;12.55;;
36629;SDS011;36256;42.154;23.002;2023-01-16T00:55:46;20.60;;;11.88;;
36629;SDS011;36256;42.154;23.002;2023-01-16T00:58:12;21.02;;;11.57;;
36629;SDS011;36256;42.154;23.002;2023-01-16T01:00:39;22.40;;;12.60;;
36629;SDS011;36256;42.154;23.002;2023-01-16T01:03:06;19.65;;;11.25;;
36629;SDS011;36256;42.154;23.002;2023-01-16T01:05:34;24.90;;;12.63;;
36629;SDS011;36256;42.154;23.002;2023-01-16T01:08:02;21.95;;;11.93;;
36629;SDS011;36256;42.154;23.002;2023-01-16T01:10:29;20.05;;;12.10;;
36629;SDS011;36256;42.154;23.002;2023-01-16T01:12:55;23.40;;;11.95;;
36629;SDS011;36256;42.154;23.002;2023-01-16T01:15:22;16.92;;;8.85;;
36629;SDS011;36256;42.154;23.002;2023-01-16T01:17:49;20.30;;;12.38;;
36629;SDS011;36256;42.154;23.002;2023-01-16T01:20:16;22.77;;;12.35;;
36629;SDS011;36256;42.154;23.002;2023-01-16T01:22:43;22.98;;;12.85;;
36629;SDS011;36256;42.154;23.002;2023-01-16T01:25:11;21.65;;;12.95;;
36629;SDS011;36256;42.154;23.002;2023-01-16T01:27:38;27.48;;;14.18;;
36629;SDS011;36256;42.154;23.002;2023-01-16T01:30:05;23.55;;;13.93;;
36629;SDS011;36256;42.154;23.002;2023-01-16T01:32:32;24.05;;;13.02;;
36629;SDS011;36256;42.154;23.002;2023-01-16T01:34:59;22.00;;;12.60;;
36629;SDS011;36256;42.154;23.002;2023-01-16T01:37:26;21.13;;;12.23;;
36629;SDS011;36256;42.154;23.002;2023-01-16T01:39:53;19.48;;;11.45;;
36629;SDS011;36256;42.154;23.002;2023-01-16T01:42:20;20.98;;;11.60;;
36629;SDS011;36256;42.154;23.002;2023-01-16T01:45:25;18.65;;;10.82;;
36629;SDS011;36256;42.154;23.002;2023-01-16T01:50:41;22.40;;;12.15;;
36629;SDS011;36256;42.154;23.002;2023-01-16T01:53:13;19.27;;;11.23;;
36629;SDS011;36256;42.154;23.002;2023-01-16T01:55:45;19.98;;;11.82;;
36629;SDS011;36256;42.154;23.002;2023-01-16T01:58:15;22.92;;;12.32;;
36629;SDS011;36256;42.154;23.002;2023-01-16T02:00:48;21.38;;;12.18;;
36629;SDS011;36256;42.154;23.002;2023-01-16T02:03:20;23.95;;;11.98;;
36629;SDS011;36256;42.154;23.002;2023-01-16T02:05:52;24.38;;;12.23;;
36629;SDS011;36256;42.154;23.002;2023-01-16T02:08:25;24.60;;;11.45;;
36629;SDS011;36256;42.154;23.002;2023-01-16T02:10:59;22.95;;;11.73;;
36629;SDS011;36256;42.154;23.002;2023-01-16T02:13:31;18.67;;;11.23;;
36629;SDS011;36256;42.154;23.002;2023-01-16T02:15:58;20.92;;;11.38;;
36629;SDS011;36256;42.154;23.002;2023-01-16T02:18:43;19.75;;;10.93;;
36629;SDS011;36256;42.154;23.002;2023-01-16T02:33:28;23.65;;;11.63;;
36629;SDS011;36256;42.154;23.002;2023-01-16T02:35:49;21.15;;;10.93;;
36629;SDS011;36256;42.154;23.002;2023-01-16T02:47:14;22.55;;;12.27;;
36629;SDS011;36256;42.154;23.002;2023-01-16T02:49:47;22.85;;;12.57;;
36629;SDS011;36256;42.154;23.002;2023-01-16T02:52:25;22.42;;;12.68;;
36629;SDS011;36256;42.154;23.002;2023-01-16T02:55:17;22.63;;;12.15;;
36629;SDS011;36256;42.154;23.002;2023-01-16T02:57:47;21.77;;;12.27;;
36629;SDS011;36256;42.154;23.002;2023-01-16T03:00:19;26.60;;;14.52;;
36629;SDS011;36256;42.154;23.002;2023-01-16T03:02:46;21.52;;;12.32;;
36629;SDS011;36256;42.154;23.002;2023-01-16T03:05:13;16.70;;;9.93;;
36629;SDS011;36256;42.154;23.002;2023-01-16T03:26:51;19.73;;;11.25;;
36629;SDS011;36256;42.154;23.002;2023-01-16T03:32:04;21.63;;;11.45;;
36629;SDS011;36256;42.154;23.002;2023-01-16T03:34:39;22.17;;;12.30;;
36629;SDS011;36256;42.154;23.002;2023-01-16T03:37:18;24.15;;;12.80;;
36629;SDS011;36256;42.154;23.002;2023-01-16T03:39:52;23.83;;;13.05;;
36629;SDS011;36256;42.154;23.002;2023-01-16T03:42:37;20.85;;;11.98;;
36629;SDS011;36256;42.154;23.002;2023-01-16T03:45:13;23.00;;;12.63;;
36629;SDS011;36256;42.154;23.002;2023-01-16T03:47:47;25.38;;;13.05;;
36629;SDS011;36256;42.154;23.002;2023-01-16T03:50:17;24.70;;;12.82;;
36629;SDS011;36256;42.154;23.002;2023-01-16T03:52:48;27.38;;;13.80;;
36629;SDS011;36256;42.154;23.002;2023-01-16T03:55:30;32.22;;;16.42;;
36629;SDS011;36256;42.154;23.002;2023-01-16T03:58:04;32.95;;;17.02;;
36629;SDS011;36256;42.154;23.002;2023-01-16T04:00:39;40.95;;;20.55;;
36629;SDS011;36256;42.154;23.002;2023-01-16T04:03:30;222.80;;;103.03;;
36629;SDS011;36256;42.154;23.002;2023-01-16T04:06:13;61.88;;;33.58;;
36629;SDS011;36256;42.154;23.002;2023-01-16T04:08:46;26.85;;;15.43;;
36629;SDS011;36256;42.154;23.002;2023-01-16T04:11:14;23.77;;;13.05;;
36629;SDS011;36256;42.154;23.002;2023-01-16T04:13:45;30.85;;;16.80;;
36629;SDS011;36256;42.154;23.002;2023-01-16T04:16:16;42.33;;;23.50;;
36629;SDS011;36256;42.154;23.002;2023-01-16T04:18:44;63.13;;;33.30;;
36629;SDS011;36256;42.154;23.002;2023-01-16T04:21:12;63.90;;;33.65;;
36629;SDS011;36256;42.154;23.002;2023-01-16T04:23:39;38.20;;;19.98;;
36629;SDS011;36256;42.154;23.002;2023-01-16T04:26:05;32.58;;;17.83;;
36629;SDS011;36256;42.154;23.002;2023-01-16T04:28:32;25.42;;;13.68;;
36629;SDS011;36256;42.154;23.002;2023-01-16T04:30:58;23.25;;;12.32;;
36629;SDS011;36256;42.154;23.002;2023-01-16T04:33:25;24.13;;;12.00;;
36629;SDS011;36256;42.154;23.002;2023-01-16T04:35:52;24.13;;;12.45;;
36629;SDS011;36256;42.154;23.002;2023-01-16T04:38:18;25.23;;;12.50;;
36629;SDS011;36256;42.154;23.002;2023-01-16T04:40:45;17.33;;;9.38;;
36629;SDS011;36256;42.154;23.002;2023-01-16T04:43:11;23.25;;;12.18;;
36629;SDS011;36256;42.154;23.002;2023-01-16T04:45:38;25.10;;;12.93;;
36629;SDS011;36256;42.154;23.002;2023-01-16T04:48:06;24.73;;;12.80;;
36629;SDS011;36256;42.154;23.002;2023-01-16T04:50:33;25.17;;;13.90;;
36629;SDS011;36256;42.154;23.002;2023-01-16T04:52:59;37.53;;;19.13;;
36629;SDS011;36256;42.154;23.002;2023-01-16T04:55:26;44.97;;;24.13;;
36629;SDS011;36256;42.154;23.002;2023-01-16T04:57:53;70.72;;;31.98;;
36629;SDS011;36256;42.154;23.002;2023-01-16T05:00:19;67.60;;;30.55;;
36629;SDS011;36256;42.154;23.002;2023-01-16T05:02:46;51.47;;;24.75;;
36629;SDS011;36256;42.154;23.002;2023-01-16T05:05:13;33.42;;;18.45;;
36629;SDS011;36256;42.154;23.002;2023-01-16T05:07:39;39.72;;;21.63;;
36629;SDS011;36256;42.154;23.002;2023-01-16T05:10:06;23.55;;;13.52;;
36629;SDS011;36256;42.154;23.002;2023-01-16T05:12:33;24.88;;;13.48;;
36629;SDS011;36256;42.154;23.002;2023-01-16T05:14:59;20.20;;;11.15;;
36629;SDS011;36256;42.154;23.002;2023-01-16T05:17:26;28.10;;;16.17;;
36629;SDS011;36256;42.154;23.002;2023-01-16T05:19:52;26.60;;;14.35;;
36629;SDS011;36256;42.154;23.002;2023-01-16T05:22:19;26.02;;;13.40;;
36629;SDS011;36256;42.154;23.002;2023-01-16T05:24:46;22.50;;;13.32;;
36629;SDS011;36256;42.154;23.002;2023-01-16T05:27:12;25.10;;;13.93;;
36629;SDS011;36256;42.154;23.002;2023-01-16T05:29:39;28.02;;;14.27;;
36629;SDS011;36256;42.154;23.002;2023-01-16T05:32:05;19.65;;;10.85;;
36629;SDS011;36256;42.154;23.002;2023-01-16T05:34:32;25.70;;;14.55;;
36629;SDS011;36256;42.154;23.002;2023-01-16T05:36:58;19.75;;;11.05;;
36629;SDS011;36256;42.154;23.002;2023-01-16T05:39:25;28.60;;;15.95;;
36629;SDS011;36256;42.154;23.002;2023-01-16T05:41:51;33.17;;;16.08;;
36629;SDS011;36256;42.154;23.002;2023-01-16T05:44:18;28.45;;;15.38;;
36629;SDS011;36256;42.154;23.002;2023-01-16T05:46:45;30.00;;;15.43;;
36629;SDS011;36256;42.154;23.002;2023-01-16T05:49:12;29.73;;;15.93;;
36629;SDS011;36256;42.154;23.002;2023-01-16T05:51:39;33.10;;;17.15;;
36629;SDS011;36256;42.154;23.002;2023-01-16T05:54:05;126.20;;;49.40;;
36629;SDS011;36256;42.154;23.002;2023-01-16T05:56:35;141.05;;;61.60;;
36629;SDS011;36256;42.154;23.002;2023-01-16T05:59:02;110.00;;;48.47;;
36629;SDS011;36256;42.154;23.002;2023-01-16T06:01:28;85.85;;;39.97;;
36629;SDS011;36256;42.154;23.002;2023-01-16T06:03:55;68.40;;;32.38;;
36629;SDS011;36256;42.154;23.002;2023-01-16T06:06:22;55.55;;;28.52;;
36629;SDS011;36256;42.154;23.002;2023-01-16T06:08:48;60.45;;;30.27;;
36629;SDS011;36256;42.154;23.002;2023-01-16T06:11:15;46.92;;;23.60;;
36629;SDS011;36256;42.154;23.002;2023-01-16T06:13:41;43.90;;;24.38;;
36629;SDS011;36256;42.154;23.002;2023-01-16T06:16:09;58.80;;;29.50;;
36629;SDS011;36256;42.154;23.002;2023-01-16T06:18:35;49.97;;;26.13;;
36629;SDS011;36256;42.154;23.002;2023-01-16T06:21:02;37.10;;;21.42;;
36629;SDS011;36256;42.154;23.002;2023-01-16T06:23:29;37.63;;;20.13;;
36629;SDS011;36256;42.154;23.002;2023-01-16T06:25:56;32.10;;;16.33;;
36629;SDS011;36256;42.154;23.002;2023-01-16T06:28:23;37.78;;;20.45;;
36629;SDS011;36256;42.154;23.002;2023-01-16T06:30:50;35.08;;;18.52;;
36629;SDS011;36256;42.154;23.002;2023-01-16T06:33:18;57.42;;;28.02;;
36629;SDS011;36256;42.154;23.002;2023-01-16T06:35:45;32.78;;;16.20;;
36629;SDS011;36256;42.154;23.002;2023-01-16T06:38:11;36.00;;;18.80;;
36629;SDS011;36256;42.154;23.002;2023-01-16T06:40:38;33.78;;;18.88;;
36629;SDS011;36256;42.154;23.002;2023-01-16T06:43:04;30.50;;;17.05;;
36629;SDS011;36256;42.154;23.002;2023-01-16T06:45:31;28.05;;;13.50;;
36629;SDS011;36256;42.154;23.002;2023-01-16T06:47:58;39.35;;;18.88;;
36629;SDS011;36256;42.154;23.002;2023-01-16T06:50:24;79.72;;;37.75;;
36629;SDS011;36256;42.154;23.002;2023-01-16T06:52:51;94.88;;;47.50;;
36629;SDS011;36256;42.154;23.002;2023-01-16T06:55:17;121.30;;;60.45;;
36629;SDS011;36256;42.154;23.002;2023-01-16T06:57:44;101.18;;;51.38;;
36629;SDS011;36256;42.154;23.002;2023-01-16T07:00:11;107.22;;;52.20;;
36629;SDS011;36256;42.154;23.002;2023-01-16T07:02:39;77.65;;;40.72;;
36629;SDS011;36256;42.154;23.002;2023-01-16T07:05:06;76.03;;;41.22;;
36629;SDS011;36256;42.154;23.002;2023-01-16T07:07:34;80.25;;;44.47;;
36629;SDS011;36256;42.154;23.002;2023-01-16T07:10:01;75.85;;;42.50;;
36629;SDS011;36256;42.154;23.002;2023-01-16T07:12:28;76.82;;;41.15;;
36629;SDS011;36256;42.154;23.002;2023-01-16T07:14:55;94.03;;;49.97;;
36629;SDS011;36256;42.154;23.002;2023-01-16T07:17:40;88.53;;;44.83;;
36629;SDS011;36256;42.154;23.002;2023-01-16T07:20:25;73.57;;;40.40;;
36629;SDS011;36256;42.154;23.002;2023-01-16T07:23:18;98.32;;;45.22;;
36629;SDS011;36256;42.154;23.002;2023-01-16T07:25:48;127.22;;;49.22;;
36629;SDS011;36256;42.154;23.002;2023-01-16T07:28:17;89.70;;;36.28;;
36629;SDS011;36256;42.154;23.002;2023-01-16T07:30:44;78.47;;;36.15;;
36629;SDS011;36256;42.154;23.002;2023-01-16T07:33:12;69.25;;;33.85;;
36629;SDS011;36256;42.154;23.002;2023-01-16T07:35:39;84.53;;;44.28;;
36629;SDS011;36256;42.154;23.002;2023-01-16T07:38:06;95.60;;;49.97;;
36629;SDS011;36256;42.154;23.002;2023-01-16T07:40:32;88.30;;;47.28;;
36629;SDS011;36256;42.154;23.002;2023-01-16T07:42:59;75.22;;;40.17;;
36629;SDS011;36256;42.154;23.002;2023-01-16T07:45:25;66.32;;;35.60;;
36629;SDS011;36256;42.154;23.002;2023-01-16T07:47:52;63.78;;;33.45;;
36629;SDS011;36256;42.154;23.002;2023-01-16T07:50:19;58.60;;;26.55;;
36629;SDS011;36256;42.154;23.002;2023-01-16T07:52:45;34.83;;;19.90;;
36629;SDS011;36256;42.154;23.002;2023-01-16T07:55:12;24.20;;;13.60;;
36629;SDS011;36256;42.154;23.002;2023-01-16T07:57:40;30.85;;;18.02;;
36629;SDS011;36256;42.154;23.002;2023-01-16T08:00:07;32.33;;;18.25;;
36629;SDS011;36256;42.154;23.002;2023-01-16T08:02:36;34.75;;;21.00;;
36629;SDS011;36256;42.154;23.002;2023-01-16T08:05:04;39.08;;;21.70;;
36629;SDS011;36256;42.154;23.002;2023-01-16T08:09:57;47.28;;;26.50;;
36629;SDS011;36256;42.154;23.002;2023-01-16T08:12:24;72.25;;;40.63;;
36629;SDS011;36256;42.154;23.002;2023-01-16T08:14:50;68.10;;;38.78;;
36629;SDS011;36256;42.154;23.002;2023-01-16T08:17:17;80.47;;;43.95;;
36629;SDS011;36256;42.154;23.002;2023-01-16T08:19:44;74.40;;;41.45;;
36629;SDS011;36256;42.154;23.002;2023-01-16T08:22:10;55.10;;;33.15;;
36629;SDS011;36256;42.154;23.002;2023-01-16T08:24:37;58.88;;;32.53;;
36629;SDS011;36256;42.154;23.002;2023-01-16T08:27:03;58.60;;;32.80;;
36629;SDS011;36256;42.154;23.002;2023-01-16T08:29:30;60.30;;;35.10;;
36629;SDS011;36256;42.154;23.002;2023-01-16T08:31:57;54.08;;;31.55;;
36629;SDS011;36256;42.154;23.002;2023-01-16T08:34:23;47.17;;;26.33;;
36629;SDS011;36256;42.154;23.002;2023-01-16T08:36:50;56.13;;;29.58;;
36629;SDS011;36256;42.154;23.002;2023-01-16T08:39:17;53.65;;;29.35;;
36629;SDS011;36256;42.154;23.002;2023-01-16T08:41:43;50.42;;;28.05;;
36629;SDS011;36256;42.154;23.002;2023-01-16T08:44:28;41.85;;;24.52;;
36629;SDS011;36256;42.154;23.002;2023-01-16T08:47:14;39.95;;;23.50;;
36629;SDS011;36256;42.154;23.002;2023-01-16T08:50:15;43.42;;;24.98;;
36629;SDS011;36256;42.154;23.002;2023-01-16T08:53:02;40.53;;;24.13;;
36629;SDS011;36256;42.154;23.002;2023-01-16T08:55:30;58.90;;;29.85;;
36629;SDS011;36256;42.154;23.002;2023-01-16T08:57:57;32.60;;;19.35;;
36629;SDS011;36256;42.154;23.002;2023-01-16T09:00:25;32.80;;;20.42;;
36629;SDS011;36256;42.154;23.002;2023-01-16T09:02:53;32.40;;;19.33;;
36629;SDS011;36256;42.154;23.002;2023-01-16T09:05:22;33.22;;;19.30;;
36629;SDS011;36256;42.154;23.002;2023-01-16T09:07:49;30.95;;;20.42;;
36629;SDS011;36256;42.154;23.002;2023-01-16T09:10:15;35.15;;;20.65;;
36629;SDS011;36256;42.154;23.002;2023-01-16T09:12:42;40.70;;;23.77;;
36629;SDS011;36256;42.154;23.002;2023-01-16T09:15:28;42.33;;;25.27;;
36629;SDS011;36256;42.154;23.002;2023-01-16T09:17:54;27.02;;;17.77;;
36629;SDS011;36256;42.154;23.002;2023-01-16T09:20:21;35.90;;;22.90;;
36629;SDS011;36256;42.154;23.002;2023-01-16T09:22:48;33.40;;;21.40;;
36629;SDS011;36256;42.154;23.002;2023-01-16T09:25:14;29.02;;;17.23;;
36629;SDS011;36256;42.154;23.002;2023-01-16T09:27:41;46.47;;;22.02;;
36629;SDS011;36256;42.154;23.002;2023-01-16T09:30:12;37.47;;;18.30;;
36629;SDS011;36256;42.154;23.002;2023-01-16T09:32:39;13.88;;;9.70;;
36629;SDS011;36256;42.154;23.002;2023-01-16T09:35:06;16.60;;;11.45;;
36629;SDS011;36256;42.154;23.002;2023-01-16T09:37:32;18.13;;;10.68;;
36629;SDS011;36256;42.154;23.002;2023-01-16T09:39:59;20.27;;;11.02;;
36629;SDS011;36256;42.154;23.002;2023-01-16T09:45:22;19.05;;;11.40;;
36629;SDS011;36256;42.154;23.002;2023-01-16T09:47:54;16.75;;;11.43;;
36629;SDS011;36256;42.154;23.002;2023-01-16T09:53:02;19.35;;;12.57;;
36629;SDS011;36256;42.154;23.002;2023-01-16T09:55:49;19.60;;;12.52;;
36629;SDS011;36256;42.154;23.002;2023-01-16T10:01:45;15.82;;;10.80;;
36629;SDS011;36256;42.154;23.002;2023-01-16T10:04:19;18.15;;;12.05;;
36629;SDS011;36256;42.154;23.002;2023-01-16T10:12:46;13.20;;;9.43;;
36629;SDS011;36256;42.154;23.002;2023-01-16T10:18:49;14.77;;;9.98;;
36629;SDS011;36256;42.154;23.002;2023-01-16T10:24:16;15.32;;;10.50;;
36629;SDS011;36256;42.154;23.002;2023-01-16T10:29:39;16.70;;;10.68;;
36629;SDS011;36256;42.154;23.002;2023-01-16T10:35:13;15.18;;;10.63;;
36629;SDS011;36256;42.154;23.002;2023-01-16T10:37:41;15.57;;;10.75;;
36629;SDS011;36256;42.154;23.002;2023-01-16T10:40:21;22.50;;;11.02;;
36629;SDS011;36256;42.154;23.002;2023-01-16T10:42:56;11.60;;;7.53;;
36629;SDS011;36256;42.154;23.002;2023-01-16T10:45:46;13.65;;;9.25;;
36629;SDS011;36256;42.154;23.002;2023-01-16T10:48:49;13.20;;;8.98;;
36629;SDS011;36256;42.154;23.002;2023-01-16T10:51:35;11.85;;;8.70;;
36629;SDS011;36256;42.154;23.002;2023-01-16T10:54:01;9.55;;;7.32;;
36629;SDS011;36256;42.154;23.002;2023-01-16T10:58:57;10.07;;;7.63;;
36629;SDS011;36256;42.154;23.002;2023-01-16T11:01:24;13.10;;;8.70;;
36629;SDS011;36256;42.154;23.002;2023-01-16T11:03:55;12.07;;;8.77;;
36629;SDS011;36256;42.154;23.002;2023-01-16T11:06:25;13.50;;;7.57;;
36629;SDS011;36256;42.154;23.002;2023-01-16T11:08:54;11.77;;;8.23;;
36629;SDS011;36256;42.154;23.002;2023-01-16T11:11:35;21.15;;;13.43;;
36629;SDS011;36256;42.154;23.002;2023-01-16T11:22:58;12.50;;;8.55;;
36629;SDS011;36256;42.154;23.002;2023-01-16T11:25:29;12.55;;;8.60;;
36629;SDS011;36256;42.154;23.002;2023-01-16T11:27:57;11.55;;;8.48;;
36629;SDS011;36256;42.154;23.002;2023-01-16T11:30:29;12.80;;;9.43;;
36629;SDS011;36256;42.154;23.002;2023-01-16T11:32:58;15.02;;;8.90;;
36629;SDS011;36256;42.154;23.002;2023-01-16T11:35:29;13.70;;;9.52;;
36629;SDS011;36256;42.154;23.002;2023-01-16T11:37:58;12.45;;;9.05;;
36629;SDS011;36256;42.154;23.002;2023-01-16T11:40:29;11.85;;;8.35;;
36629;SDS011;36256;42.154;23.002;2023-01-16T11:43:06;13.27;;;9.43;;
36629;SDS011;36256;42.154;23.002;2023-01-16T11:45:57;10.73;;;7.47;;
36629;SDS011;36256;42.154;23.002;2023-01-16T11:51:04;13.55;;;8.30;;
36629;SDS011;36256;42.154;23.002;2023-01-16T11:53:33;12.07;;;7.75;;
36629;SDS011;36256;42.154;23.002;2023-01-16T11:56:08;12.90;;;8.55;;
36629;SDS011;36256;42.154;23.002;2023-01-16T12:02:18;12.43;;;8.07;;
36629;SDS011;36256;42.154;23.002;2023-01-16T12:21:55;12.57;;;8.05;;
36629;SDS011;36256;42.154;23.002;2023-01-16T12:24:48;10.88;;;7.28;;
36629;SDS011;36256;42.154;23.002;2023-01-16T12:32:43;8.63;;;6.90;;
36629;SDS011;36256;42.154;23.002;2023-01-16T12:40:41;8.82;;;6.63;;
36629;SDS011;36256;42.154;23.002;2023-01-16T12:46:00;9.50;;;7.15;;
36629;SDS011;36256;42.154;23.002;2023-01-16T12:48:55;12.32;;;8.02;;
36629;SDS011;36256;42.154;23.002;2023-01-16T13:00:12;9.38;;;7.28;;
36629;SDS011;36256;42.154;23.002;2023-01-16T13:02:46;9.18;;;6.80;;
36629;SDS011;36256;42.154;23.002;2023-01-16T13:05:25;9.60;;;6.68;;
36629;SDS011;36256;42.154;23.002;2023-01-16T13:07:59;9.85;;;7.30;;
36629;SDS011;36256;42.154;23.002;2023-01-16T13:10:36;10.77;;;8.02;;
36629;SDS011;36256;42.154;23.002;2023-01-16T13:13:29;9.95;;;6.45;;
36629;SDS011;36256;42.154;23.002;2023-01-16T13:18:37;11.18;;;8.07;;
36629;SDS011;36256;42.154;23.002;2023-01-16T13:21:10;10.93;;;8.30;;
36629;SDS011;36256;42.154;23.002;2023-01-16T13:24:28;11.65;;;8.88;;
36629;SDS011;36256;42.154;23.002;2023-01-16T13:26:44;11.38;;;8.48;;
36629;SDS011;36256;42.154;23.002;2023-01-16T13:29:17;12.57;;;8.57;;
36629;SDS011;36256;42.154;23.002;2023-01-16T13:34:49;13.18;;;9.18;;
36629;SDS011;36256;42.154;23.002;2023-01-16T13:37:26;14.05;;;9.68;;
36629;SDS011;36256;42.154;23.002;2023-01-16T13:43:16;12.50;;;8.63;;
36629;SDS011;36256;42.154;23.002;2023-01-16T13:46:03;12.88;;;8.25;;
36629;SDS011;36256;42.154;23.002;2023-01-16T13:48:32;13.52;;;8.63;;
36629;SDS011;36256;42.154;23.002;2023-01-16T13:51:06;13.27;;;8.77;;
36629;SDS011;36256;42.154;23.002;2023-01-16T13:53:38;12.25;;;9.25;;
36629;SDS011;36256;42.154;23.002;2023-01-16T13:56:10;12.73;;;9.13;;
36629;SDS011;36256;42.154;23.002;2023-01-16T13:58:41;10.70;;;8.45;;
36629;SDS011;36256;42.154;23.002;2023-01-16T14:06:43;13.80;;;9.63;;
36629;SDS011;36256;42.154;23.002;2023-01-16T14:09:22;14.15;;;10.10;;
36629;SDS011;36256;42.154;23.002;2023-01-16T14:14:31;20.92;;;12.85;;
36629;SDS011;36256;42.154;23.002;2023-01-16T14:17:59;14.98;;;9.45;;
36629;SDS011;36256;42.154;23.002;2023-01-16T14:20:35;19.10;;;12.10;;
36629;SDS011;36256;42.154;23.002;2023-01-16T14:28:55;17.77;;;11.07;;
36629;SDS011;36256;42.154;23.002;2023-01-16T14:31:26;17.38;;;11.50;;
36629;SDS011;36256;42.154;23.002;2023-01-16T14:34:05;12.98;;;8.98;;
36629;SDS011;36256;42.154;23.002;2023-01-16T14:36:49;14.05;;;8.75;;
36629;SDS011;36256;42.154;23.002;2023-01-16T14:39:28;12.45;;;8.70;;
36629;SDS011;36256;42.154;23.002;2023-01-16T14:42:01;10.50;;;7.80;;
36629;SDS011;36256;42.154;23.002;2023-01-16T14:44:57;11.00;;;8.05;;
36629;SDS011;36256;42.154;23.002;2023-01-16T14:51:01;13.05;;;8.15;;
36629;SDS011;36256;42.154;23.002;2023-01-16T14:53:59;14.25;;;8.48;;
36629;SDS011;36256;42.154;23.002;2023-01-16T14:56:50;12.05;;;8.57;;
36629;SDS011;36256;42.154;23.002;2023-01-16T14:59:25;12.35;;;8.30;;
36629;SDS011;36256;42.154;23.002;2023-01-16T15:02:01;11.88;;;8.70;;
36629;SDS011;36256;42.154;23.002;2023-01-16T15:07:31;13.77;;;8.07;;
36629;SDS011;36256;42.154;23.002;2023-01-16T15:10:04;13.20;;;9.25;;
36629;SDS011;36256;42.154;23.002;2023-01-16T15:12:40;10.43;;;7.72;;
36629;SDS011;36256;42.154;23.002;2023-01-16T15:17:54;11.60;;;8.63;;
36629;SDS011;36256;42.154;23.002;2023-01-16T15:20:42;12.52;;;8.15;;
36629;SDS011;36256;42.154;23.002;2023-01-16T15:23:33;11.95;;;8.15;;
36629;SDS011;36256;42.154;23.002;2023-01-16T15:31:32;14.80;;;10.30;;
36629;SDS011;36256;42.154;23.002;2023-01-16T15:36:42;12.68;;;9.38;;
36629;SDS011;36256;42.154;23.002;2023-01-16T15:39:30;14.05;;;9.68;;
36629;SDS011;36256;42.154;23.002;2023-01-16T15:44:45;12.75;;;9.45;;
36629;SDS011;36256;42.154;23.002;2023-01-16T15:50:24;11.65;;;9.05;;
36629;SDS011;36256;42.154;23.002;2023-01-16T15:52:59;14.38;;;10.50;;
36629;SDS011;36256;42.154;23.002;2023-01-16T15:55:27;16.83;;;10.80;;
36629;SDS011;36256;42.154;23.002;2023-01-16T15:58:00;11.80;;;8.15;;
36629;SDS011;36256;42.154;23.002;2023-01-16T16:03:00;11.93;;;7.78;;
36629;SDS011;36256;42.154;23.002;2023-01-16T16:05:36;12.98;;;8.70;;
36629;SDS011;36256;42.154;23.002;2023-01-16T16:08:04;12.80;;;8.95;;
36629;SDS011;36256;42.154;23.002;2023-01-16T16:10:33;10.93;;;8.00;;
36629;SDS011;36256;42.154;23.002;2023-01-16T16:13:22;10.70;;;8.07;;
36629;SDS011;36256;42.154;23.002;2023-01-16T16:15:56;11.20;;;8.20;;
36629;SDS011;36256;42.154;23.002;2023-01-16T16:21:21;11.45;;;8.60;;
36629;SDS011;36256;42.154;23.002;2023-01-16T16:23:56;10.70;;;8.07;;
36629;SDS011;36256;42.154;23.002;2023-01-16T16:26:26;12.38;;;8.25;;
36629;SDS011;36256;42.154;23.002;2023-01-16T16:28:53;12.05;;;8.02;;
36629;SDS011;36256;42.154;23.002;2023-01-16T16:31:22;12.85;;;8.68;;
36629;SDS011;36256;42.154;23.002;2023-01-16T16:36:42;14.00;;;9.38;;
36629;SDS011;36256;42.154;23.002;2023-01-16T16:39:30;13.57;;;9.40;;
36629;SDS011;36256;42.154;23.002;2023-01-16T16:45:09;12.23;;;9.02;;
36629;SDS011;36256;42.154;23.002;2023-01-16T16:47:46;11.90;;;8.23;;
36629;SDS011;36256;42.154;23.002;2023-01-16T16:50:36;16.85;;;8.73;;
36629;SDS011;36256;42.154;23.002;2023-01-16T16:55:46;16.58;;;10.00;;
36629;SDS011;36256;42.154;23.002;2023-01-16T16:58:21;13.70;;;9.60;;
36629;SDS011;36256;42.154;23.002;2023-01-16T17:00:50;14.52;;;8.80;;
36629;SDS011;36256;42.154;23.002;2023-01-16T17:03:21;11.65;;;8.43;;
36629;SDS011;36256;42.154;23.002;2023-01-16T17:05:50;13.73;;;9.73;;
36629;SDS011;36256;42.154;23.002;2023-01-16T17:08:22;14.18;;;9.50;;
36629;SDS011;36256;42.154;23.002;2023-01-16T17:10:50;14.35;;;9.73;;
36629;SDS011;36256;42.154;23.002;2023-01-16T17:13:17;15.68;;;11.48;;
36629;SDS011;36256;42.154;23.002;2023-01-16T17:15:45;13.52;;;9.18;;
36629;SDS011;36256;42.154;23.002;2023-01-16T17:18:13;12.77;;;9.13;;
36629;SDS011;36256;42.154;23.002;2023-01-16T17:23:11;12.27;;;8.10;;
36629;SDS011;36256;42.154;23.002;2023-01-16T17:25:40;18.83;;;10.80;;
36629;SDS011;36256;42.154;23.002;2023-01-16T17:30:33;15.27;;;9.68;;
36629;SDS011;36256;42.154;23.002;2023-01-16T17:33:16;15.50;;;9.65;;
36629;SDS011;36256;42.154;23.002;2023-01-16T17:35:46;15.02;;;9.73;;
36629;SDS011;36256;42.154;23.002;2023-01-16T17:38:25;13.70;;;9.10;;
36629;SDS011;36256;42.154;23.002;2023-01-16T17:40:51;12.48;;;9.18;;
36629;SDS011;36256;42.154;23.002;2023-01-16T17:43:19;13.52;;;9.50;;
36629;SDS011;36256;42.154;23.002;2023-01-16T17:48:35;23.20;;;15.25;;
36629;SDS011;36256;42.154;23.002;2023-01-16T17:53:30;17.52;;;11.10;;
36629;SDS011;36256;42.154;23.002;2023-01-16T17:55:58;17.55;;;12.98;;
36629;SDS011;36256;42.154;23.002;2023-01-16T17:58:31;13.48;;;10.05;;
36629;SDS011;36256;42.154;23.002;2023-01-16T18:01:19;16.70;;;10.02;;